DATM

Bordj Badji Mokhtar Airport

Bordj Badji Mokhtar, Algeria
METAR DATM 191100Z 06012KT CAVOK 39/12 Q1013
Observed Flight Rules
Sep-19 @ 11:00 UTC (45 minutes ago) Visual Flight Rules
Wind Visibility Clouds
60° at 12 knots 10,000+ meters
  • Clear skies
Temperatures Readings
Current 39°C / 102°F
Dewpoint 12°C / 54°F
Humidity 20%
Altimeter 29.91" Hg
Pressure 1013 hPa
Elevation 396
METAR DATM 191100Z 06012KT CAVOK 39/12 Q1013
Observed Flight Rules
Sep-19 @ 11:00 UTC
(45 minutes ago)
VFR
Wind Visibility
60° at 12 knots 10,000+ meters
Clouds
  • Clear skies
Temperature Dewpoint
39°C / 102°F 12°C / 54°F
Humidity Altimeter Pressure
20% 29.91" Hg 1013 hPa